sensor_id;sensor_type;location;lat;lon;timestamp;P1;durP1;ratioP1;P2;durP2;ratioP2
38783;SDS011;24531;45.502;12.238;2024-03-02T00:00:10;10.82;;;5.05;;
38783;SDS011;24531;45.502;12.238;2024-03-02T00:02:45;13.50;;;4.72;;
38783;SDS011;24531;45.502;12.238;2024-03-02T00:05:13;8.73;;;4.40;;
38783;SDS011;24531;45.502;12.238;2024-03-02T00:07:41;12.77;;;4.97;;
38783;SDS011;24531;45.502;12.238;2024-03-02T00:10:09;16.30;;;5.07;;
38783;SDS011;24531;45.502;12.238;2024-03-02T00:12:36;12.98;;;4.93;;
38783;SDS011;24531;45.502;12.238;2024-03-02T00:15:06;5.90;;;3.70;;
38783;SDS011;24531;45.502;12.238;2024-03-02T00:17:42;12.57;;;4.70;;
38783;SDS011;24531;45.502;12.238;2024-03-02T00:20:08;9.75;;;4.82;;
38783;SDS011;24531;45.502;12.238;2024-03-02T00:22:35;12.38;;;4.40;;
38783;SDS011;24531;45.502;12.238;2024-03-02T00:25:02;14.30;;;4.93;;
38783;SDS011;24531;45.502;12.238;2024-03-02T00:27:29;14.82;;;5.00;;
38783;SDS011;24531;45.502;12.238;2024-03-02T00:29:57;11.40;;;4.68;;
38783;SDS011;24531;45.502;12.238;2024-03-02T00:32:23;7.93;;;4.07;;
38783;SDS011;24531;45.502;12.238;2024-03-02T00:34:50;12.90;;;4.45;;
38783;SDS011;24531;45.502;12.238;2024-03-02T00:37:15;15.45;;;4.30;;
38783;SDS011;24531;45.502;12.238;2024-03-02T00:39:41;8.45;;;4.68;;
38783;SDS011;24531;45.502;12.238;2024-03-02T00:42:06;12.27;;;4.53;;
38783;SDS011;24531;45.502;12.238;2024-03-02T00:44:33;9.98;;;4.88;;
38783;SDS011;24531;45.502;12.238;2024-03-02T00:47:00;15.63;;;6.45;;
38783;SDS011;24531;45.502;12.238;2024-03-02T00:49:26;12.13;;;4.90;;
38783;SDS011;24531;45.502;12.238;2024-03-02T00:51:53;11.10;;;5.35;;
38783;SDS011;24531;45.502;12.238;2024-03-02T00:54:20;8.52;;;4.45;;
38783;SDS011;24531;45.502;12.238;2024-03-02T00:56:48;15.13;;;5.93;;
38783;SDS011;24531;45.502;12.238;2024-03-02T00:59:14;10.90;;;5.20;;
38783;SDS011;24531;45.502;12.238;2024-03-02T01:01:40;11.70;;;5.85;;
38783;SDS011;24531;45.502;12.238;2024-03-02T01:04:07;10.45;;;5.38;;
38783;SDS011;24531;45.502;12.238;2024-03-02T01:06:32;15.27;;;5.05;;
38783;SDS011;24531;45.502;12.238;2024-03-02T01:08:59;9.55;;;5.03;;
38783;SDS011;24531;45.502;12.238;2024-03-02T01:11:24;7.43;;;5.10;;
38783;SDS011;24531;45.502;12.238;2024-03-02T01:13:50;16.42;;;5.05;;
38783;SDS011;24531;45.502;12.238;2024-03-02T01:16:16;11.32;;;5.75;;
38783;SDS011;24531;45.502;12.238;2024-03-02T01:18:42;10.20;;;4.97;;
38783;SDS011;24531;45.502;12.238;2024-03-02T01:21:08;9.68;;;5.10;;
38783;SDS011;24531;45.502;12.238;2024-03-02T01:23:34;10.57;;;5.47;;
38783;SDS011;24531;45.502;12.238;2024-03-02T01:25:59;12.05;;;4.97;;
38783;SDS011;24531;45.502;12.238;2024-03-02T01:28:25;12.27;;;5.78;;
38783;SDS011;24531;45.502;12.238;2024-03-02T01:30:51;9.85;;;5.28;;
38783;SDS011;24531;45.502;12.238;2024-03-02T01:33:17;13.95;;;6.60;;
38783;SDS011;24531;45.502;12.238;2024-03-02T01:35:43;11.18;;;6.28;;
38783;SDS011;24531;45.502;12.238;2024-03-02T01:38:08;14.10;;;5.57;;
38783;SDS011;24531;45.502;12.238;2024-03-02T01:40:34;10.25;;;5.93;;
38783;SDS011;24531;45.502;12.238;2024-03-02T01:43:01;7.22;;;5.03;;
38783;SDS011;24531;45.502;12.238;2024-03-02T01:45:27;10.93;;;5.32;;
38783;SDS011;24531;45.502;12.238;2024-03-02T01:47:53;8.98;;;5.57;;
38783;SDS011;24531;45.502;12.238;2024-03-02T01:50:26;10.13;;;5.97;;
38783;SDS011;24531;45.502;12.238;2024-03-02T01:52:58;14.27;;;6.70;;
38783;SDS011;24531;45.502;12.238;2024-03-02T01:55:24;14.10;;;5.82;;
38783;SDS011;24531;45.502;12.238;2024-03-02T01:57:50;18.42;;;5.78;;
38783;SDS011;24531;45.502;12.238;2024-03-02T02:00:17;11.75;;;5.95;;
38783;SDS011;24531;45.502;12.238;2024-03-02T02:02:44;9.35;;;5.32;;
38783;SDS011;24531;45.502;12.238;2024-03-02T02:05:10;13.02;;;6.10;;
38783;SDS011;24531;45.502;12.238;2024-03-02T02:07:36;11.32;;;5.55;;
38783;SDS011;24531;45.502;12.238;2024-03-02T02:10:02;8.32;;;5.45;;
38783;SDS011;24531;45.502;12.238;2024-03-02T02:12:28;10.80;;;5.13;;
38783;SDS011;24531;45.502;12.238;2024-03-02T02:14:53;8.23;;;4.97;;
38783;SDS011;24531;45.502;12.238;2024-03-02T02:17:19;12.63;;;6.05;;
38783;SDS011;24531;45.502;12.238;2024-03-02T02:19:45;11.27;;;5.25;;
38783;SDS011;24531;45.502;12.238;2024-03-02T02:22:11;7.70;;;4.95;;
38783;SDS011;24531;45.502;12.238;2024-03-02T02:24:40;9.30;;;4.68;;
38783;SDS011;24531;45.502;12.238;2024-03-02T02:27:06;7.72;;;5.80;;
38783;SDS011;24531;45.502;12.238;2024-03-02T02:29:36;10.35;;;5.20;;
38783;SDS011;24531;45.502;12.238;2024-03-02T02:32:02;7.75;;;4.72;;
38783;SDS011;24531;45.502;12.238;2024-03-02T02:34:27;13.40;;;5.22;;
38783;SDS011;24531;45.502;12.238;2024-03-02T02:36:53;9.15;;;5.00;;
38783;SDS011;24531;45.502;12.238;2024-03-02T02:39:20;12.65;;;5.97;;
38783;SDS011;24531;45.502;12.238;2024-03-02T02:41:47;9.80;;;5.10;;
38783;SDS011;24531;45.502;12.238;2024-03-02T02:44:13;7.72;;;4.70;;
38783;SDS011;24531;45.502;12.238;2024-03-02T02:46:39;11.02;;;5.25;;
38783;SDS011;24531;45.502;12.238;2024-03-02T02:49:05;10.85;;;4.75;;
38783;SDS011;24531;45.502;12.238;2024-03-02T02:51:31;8.77;;;4.50;;
38783;SDS011;24531;45.502;12.238;2024-03-02T02:53:56;9.68;;;4.68;;
38783;SDS011;24531;45.502;12.238;2024-03-02T02:56:22;9.98;;;4.22;;
38783;SDS011;24531;45.502;12.238;2024-03-02T02:58:48;9.68;;;4.80;;
38783;SDS011;24531;45.502;12.238;2024-03-02T03:01:14;6.93;;;4.38;;
38783;SDS011;24531;45.502;12.238;2024-03-02T03:03:43;8.18;;;4.47;;
38783;SDS011;24531;45.502;12.238;2024-03-02T03:06:11;6.30;;;4.38;;
38783;SDS011;24531;45.502;12.238;2024-03-02T03:08:37;8.85;;;4.40;;
38783;SDS011;24531;45.502;12.238;2024-03-02T03:11:03;10.25;;;4.57;;
38783;SDS011;24531;45.502;12.238;2024-03-02T03:13:30;8.85;;;4.03;;
38783;SDS011;24531;45.502;12.238;2024-03-02T03:15:59;9.23;;;4.25;;
38783;SDS011;24531;45.502;12.238;2024-03-02T03:18:24;8.27;;;4.70;;
38783;SDS011;24531;45.502;12.238;2024-03-02T03:20:50;9.23;;;4.60;;
38783;SDS011;24531;45.502;12.238;2024-03-02T03:23:16;13.82;;;4.47;;
38783;SDS011;24531;45.502;12.238;2024-03-02T03:25:42;8.65;;;4.18;;
38783;SDS011;24531;45.502;12.238;2024-03-02T03:28:08;11.45;;;4.38;;
38783;SDS011;24531;45.502;12.238;2024-03-02T03:30:37;8.52;;;4.00;;
38783;SDS011;24531;45.502;12.238;2024-03-02T03:33:03;6.50;;;3.30;;
38783;SDS011;24531;45.502;12.238;2024-03-02T03:35:31;6.32;;;3.75;;
38783;SDS011;24531;45.502;12.238;2024-03-02T03:37:57;8.55;;;3.80;;
38783;SDS011;24531;45.502;12.238;2024-03-02T03:40:22;9.38;;;4.00;;
38783;SDS011;24531;45.502;12.238;2024-03-02T03:42:48;8.13;;;4.00;;
38783;SDS011;24531;45.502;12.238;2024-03-02T03:45:15;7.45;;;3.80;;
38783;SDS011;24531;45.502;12.238;2024-03-02T03:47:41;7.93;;;3.75;;
38783;SDS011;24531;45.502;12.238;2024-03-02T03:50:06;5.78;;;3.00;;
38783;SDS011;24531;45.502;12.238;2024-03-02T03:52:32;9.50;;;3.53;;
38783;SDS011;24531;45.502;12.238;2024-03-02T03:54:58;8.23;;;2.65;;
38783;SDS011;24531;45.502;12.238;2024-03-02T03:57:25;4.80;;;3.08;;
38783;SDS011;24531;45.502;12.238;2024-03-02T03:59:51;6.72;;;3.25;;
38783;SDS011;24531;45.502;12.238;2024-03-02T04:02:16;8.35;;;3.42;;
38783;SDS011;24531;45.502;12.238;2024-03-02T04:04:42;7.72;;;3.45;;
38783;SDS011;24531;45.502;12.238;2024-03-02T04:07:08;7.90;;;3.25;;
38783;SDS011;24531;45.502;12.238;2024-03-02T04:09:34;4.40;;;2.92;;
38783;SDS011;24531;45.502;12.238;2024-03-02T04:11:59;7.18;;;3.05;;
38783;SDS011;24531;45.502;12.238;2024-03-02T04:14:25;8.82;;;4.07;;
38783;SDS011;24531;45.502;12.238;2024-03-02T04:16:51;7.53;;;3.60;;
38783;SDS011;24531;45.502;12.238;2024-03-02T04:19:16;11.77;;;3.33;;
38783;SDS011;24531;45.502;12.238;2024-03-02T04:21:42;7.40;;;3.58;;
38783;SDS011;24531;45.502;12.238;2024-03-02T04:24:07;9.35;;;4.20;;
38783;SDS011;24531;45.502;12.238;2024-03-02T04:26:33;7.45;;;3.45;;
38783;SDS011;24531;45.502;12.238;2024-03-02T04:28:59;10.10;;;3.22;;
38783;SDS011;24531;45.502;12.238;2024-03-02T04:31:24;5.47;;;3.17;;
38783;SDS011;24531;45.502;12.238;2024-03-02T04:33:50;7.85;;;2.75;;
38783;SDS011;24531;45.502;12.238;2024-03-02T04:36:15;8.30;;;3.10;;
38783;SDS011;24531;45.502;12.238;2024-03-02T04:38:41;4.70;;;2.70;;
38783;SDS011;24531;45.502;12.238;2024-03-02T04:41:07;6.40;;;3.08;;
38783;SDS011;24531;45.502;12.238;2024-03-02T04:43:33;4.07;;;2.60;;
38783;SDS011;24531;45.502;12.238;2024-03-02T04:45:59;6.45;;;2.65;;
38783;SDS011;24531;45.502;12.238;2024-03-02T04:48:25;7.57;;;2.60;;
38783;SDS011;24531;45.502;12.238;2024-03-02T04:50:50;4.97;;;2.60;;
38783;SDS011;24531;45.502;12.238;2024-03-02T04:53:16;6.55;;;2.50;;
38783;SDS011;24531;45.502;12.238;2024-03-02T04:55:41;5.13;;;1.92;;
38783;SDS011;24531;45.502;12.238;2024-03-02T04:58:07;9.27;;;3.67;;
38783;SDS011;24531;45.502;12.238;2024-03-02T05:00:33;8.02;;;3.10;;
38783;SDS011;24531;45.502;12.238;2024-03-02T05:02:59;6.03;;;2.10;;
38783;SDS011;24531;45.502;12.238;2024-03-02T05:05:25;4.00;;;2.30;;
38783;SDS011;24531;45.502;12.238;2024-03-02T05:07:51;3.47;;;2.17;;
38783;SDS011;24531;45.502;12.238;2024-03-02T05:10:17;5.43;;;2.33;;
38783;SDS011;24531;45.502;12.238;2024-03-02T05:12:42;4.45;;;2.22;;
38783;SDS011;24531;45.502;12.238;2024-03-02T05:15:08;7.55;;;2.50;;
38783;SDS011;24531;45.502;12.238;2024-03-02T05:17:38;7.15;;;2.67;;
38783;SDS011;24531;45.502;12.238;2024-03-02T05:20:07;5.20;;;2.40;;
38783;SDS011;24531;45.502;12.238;2024-03-02T05:22:34;4.13;;;2.55;;
38783;SDS011;24531;45.502;12.238;2024-03-02T05:25:00;6.60;;;2.30;;
38783;SDS011;24531;45.502;12.238;2024-03-02T05:27:27;8.60;;;3.20;;
38783;SDS011;24531;45.502;12.238;2024-03-02T05:29:52;5.20;;;3.00;;
38783;SDS011;24531;45.502;12.238;2024-03-02T05:32:18;5.70;;;2.90;;
38783;SDS011;24531;45.502;12.238;2024-03-02T05:34:44;8.77;;;3.33;;
38783;SDS011;24531;45.502;12.238;2024-03-02T05:37:10;9.07;;;3.80;;
38783;SDS011;24531;45.502;12.238;2024-03-02T05:39:36;4.38;;;2.83;;
38783;SDS011;24531;45.502;12.238;2024-03-02T05:42:01;7.45;;;3.00;;
38783;SDS011;24531;45.502;12.238;2024-03-02T05:44:28;7.22;;;3.47;;
38783;SDS011;24531;45.502;12.238;2024-03-02T05:46:54;6.07;;;3.15;;
38783;SDS011;24531;45.502;12.238;2024-03-02T05:49:20;7.40;;;4.05;;
38783;SDS011;24531;45.502;12.238;2024-03-02T05:51:46;8.98;;;3.65;;
38783;SDS011;24531;45.502;12.238;2024-03-02T05:54:11;7.43;;;4.00;;
38783;SDS011;24531;45.502;12.238;2024-03-02T05:56:37;4.90;;;3.20;;
38783;SDS011;24531;45.502;12.238;2024-03-02T05:59:02;5.38;;;3.33;;
38783;SDS011;24531;45.502;12.238;2024-03-02T06:01:38;11.25;;;4.20;;
38783;SDS011;24531;45.502;12.238;2024-03-02T06:04:04;6.47;;;3.45;;
38783;SDS011;24531;45.502;12.238;2024-03-02T06:06:30;7.97;;;3.08;;
38783;SDS011;24531;45.502;12.238;2024-03-02T06:08:57;5.80;;;3.47;;
38783;SDS011;24531;45.502;12.238;2024-03-02T06:11:23;8.25;;;3.25;;
38783;SDS011;24531;45.502;12.238;2024-03-02T06:13:49;8.93;;;3.90;;
38783;SDS011;24531;45.502;12.238;2024-03-02T06:16:15;5.30;;;4.10;;
38783;SDS011;24531;45.502;12.238;2024-03-02T06:18:40;7.72;;;3.63;;
38783;SDS011;24531;45.502;12.238;2024-03-02T06:21:06;10.80;;;4.05;;
38783;SDS011;24531;45.502;12.238;2024-03-02T06:23:32;7.72;;;3.63;;
38783;SDS011;24531;45.502;12.238;2024-03-02T06:25:57;6.88;;;3.63;;
38783;SDS011;24531;45.502;12.238;2024-03-02T06:28:23;5.80;;;3.20;;
38783;SDS011;24531;45.502;12.238;2024-03-02T06:30:48;7.45;;;3.78;;
38783;SDS011;24531;45.502;12.238;2024-03-02T06:33:14;7.15;;;3.40;;
38783;SDS011;24531;45.502;12.238;2024-03-02T06:35:40;6.55;;;3.80;;
38783;SDS011;24531;45.502;12.238;2024-03-02T06:38:06;5.15;;;3.25;;
38783;SDS011;24531;45.502;12.238;2024-03-02T06:40:31;6.35;;;3.30;;
38783;SDS011;24531;45.502;12.238;2024-03-02T06:42:57;6.68;;;4.07;;
38783;SDS011;24531;45.502;12.238;2024-03-02T06:45:22;8.80;;;4.25;;
38783;SDS011;24531;45.502;12.238;2024-03-02T06:47:49;9.10;;;3.90;;
38783;SDS011;24531;45.502;12.238;2024-03-02T06:50:14;5.65;;;4.18;;
38783;SDS011;24531;45.502;12.238;2024-03-02T06:52:40;6.65;;;4.25;;
38783;SDS011;24531;45.502;12.238;2024-03-02T06:55:06;9.07;;;4.70;;
38783;SDS011;24531;45.502;12.238;2024-03-02T06:57:31;8.00;;;4.13;;
38783;SDS011;24531;45.502;12.238;2024-03-02T06:59:57;9.00;;;3.40;;
38783;SDS011;24531;45.502;12.238;2024-03-02T07:02:26;6.50;;;4.00;;
38783;SDS011;24531;45.502;12.238;2024-03-02T07:04:55;6.75;;;3.60;;
38783;SDS011;24531;45.502;12.238;2024-03-02T07:07:20;9.35;;;3.95;;
38783;SDS011;24531;45.502;12.238;2024-03-02T07:09:46;10.90;;;3.75;;
38783;SDS011;24531;45.502;12.238;2024-03-02T07:12:13;8.25;;;4.45;;
38783;SDS011;24531;45.502;12.238;2024-03-02T07:14:38;10.25;;;4.60;;
38783;SDS011;24531;45.502;12.238;2024-03-02T07:17:23;8.13;;;4.13;;
38783;SDS011;24531;45.502;12.238;2024-03-02T07:19:48;10.48;;;4.55;;
38783;SDS011;24531;45.502;12.238;2024-03-02T07:22:14;9.73;;;4.25;;
38783;SDS011;24531;45.502;12.238;2024-03-02T07:24:43;11.23;;;4.00;;
38783;SDS011;24531;45.502;12.238;2024-03-02T07:27:10;9.00;;;4.72;;
38783;SDS011;24531;45.502;12.238;2024-03-02T07:29:37;6.75;;;4.25;;
38783;SDS011;24531;45.502;12.238;2024-03-02T07:32:03;5.90;;;3.90;;
38783;SDS011;24531;45.502;12.238;2024-03-02T07:34:29;8.05;;;4.43;;
38783;SDS011;24531;45.502;12.238;2024-03-02T07:36:55;5.05;;;3.97;;
38783;SDS011;24531;45.502;12.238;2024-03-02T07:39:21;5.53;;;4.05;;
38783;SDS011;24531;45.502;12.238;2024-03-02T07:41:46;7.55;;;4.13;;
38783;SDS011;24531;45.502;12.238;2024-03-02T07:44:12;7.75;;;4.38;;
38783;SDS011;24531;45.502;12.238;2024-03-02T07:46:40;6.57;;;4.35;;
38783;SDS011;24531;45.502;12.238;2024-03-02T07:49:09;5.10;;;3.50;;
38783;SDS011;24531;45.502;12.238;2024-03-02T07:51:35;6.47;;;3.55;;
38783;SDS011;24531;45.502;12.238;2024-03-02T07:54:01;5.93;;;4.30;;
38783;SDS011;24531;45.502;12.238;2024-03-02T07:56:27;7.45;;;4.32;;
38783;SDS011;24531;45.502;12.238;2024-03-02T07:58:53;9.10;;;3.47;;
38783;SDS011;24531;45.502;12.238;2024-03-02T08:01:19;5.78;;;3.72;;
38783;SDS011;24531;45.502;12.238;2024-03-02T08:03:45;6.43;;;3.78;;
38783;SDS011;24531;45.502;12.238;2024-03-02T08:06:15;7.32;;;4.28;;
38783;SDS011;24531;45.502;12.238;2024-03-02T08:08:41;5.35;;;3.53;;
38783;SDS011;24531;45.502;12.238;2024-03-02T08:11:06;5.35;;;3.88;;
38783;SDS011;24531;45.502;12.238;2024-03-02T08:13:32;8.45;;;4.03;;
38783;SDS011;24531;45.502;12.238;2024-03-02T08:15:58;7.38;;;4.07;;
38783;SDS011;24531;45.502;12.238;2024-03-02T08:18:24;8.10;;;3.97;;
38783;SDS011;24531;45.502;12.238;2024-03-02T08:20:50;8.15;;;4.65;;
38783;SDS011;24531;45.502;12.238;2024-03-02T08:23:15;5.80;;;4.30;;
38783;SDS011;24531;45.502;12.238;2024-03-02T08:25:41;8.23;;;4.90;;
38783;SDS011;24531;45.502;12.238;2024-03-02T08:28:07;13.10;;;4.50;;
38783;SDS011;24531;45.502;12.238;2024-03-02T08:30:33;5.50;;;4.15;;
38783;SDS011;24531;45.502;12.238;2024-03-02T08:32:59;7.43;;;4.60;;
38783;SDS011;24531;45.502;12.238;2024-03-02T08:35:25;7.53;;;4.70;;
38783;SDS011;24531;45.502;12.238;2024-03-02T08:37:51;5.93;;;3.95;;
38783;SDS011;24531;45.502;12.238;2024-03-02T08:40:17;11.20;;;4.80;;
38783;SDS011;24531;45.502;12.238;2024-03-02T08:42:42;7.88;;;4.70;;
38783;SDS011;24531;45.502;12.238;2024-03-02T08:45:08;9.30;;;4.90;;
38783;SDS011;24531;45.502;12.238;2024-03-02T08:47:34;8.05;;;4.22;;
38783;SDS011;24531;45.502;12.238;2024-03-02T08:50:00;8.52;;;5.18;;
38783;SDS011;24531;45.502;12.238;2024-03-02T08:52:26;6.25;;;3.90;;
38783;SDS011;24531;45.502;12.238;2024-03-02T08:54:52;6.22;;;3.55;;
38783;SDS011;24531;45.502;12.238;2024-03-02T08:57:17;13.48;;;4.78;;
38783;SDS011;24531;45.502;12.238;2024-03-02T08:59:43;5.38;;;3.75;;
38783;SDS011;24531;45.502;12.238;2024-03-02T09:02:09;5.70;;;3.75;;
38783;SDS011;24531;45.502;12.238;2024-03-02T09:04:35;6.70;;;4.45;;
38783;SDS011;24531;45.502;12.238;2024-03-02T09:07:01;5.22;;;3.58;;
38783;SDS011;24531;45.502;12.238;2024-03-02T09:09:26;7.50;;;4.65;;
38783;SDS011;24531;45.502;12.238;2024-03-02T09:11:52;8.25;;;4.22;;
38783;SDS011;24531;45.502;12.238;2024-03-02T09:14:20;6.93;;;4.13;;
38783;SDS011;24531;45.502;12.238;2024-03-02T09:16:46;5.97;;;4.35;;
38783;SDS011;24531;45.502;12.238;2024-03-02T09:19:12;6.00;;;4.03;;
38783;SDS011;24531;45.502;12.238;2024-03-02T09:21:37;6.45;;;4.05;;
38783;SDS011;24531;45.502;12.238;2024-03-02T09:24:03;4.70;;;3.35;;
38783;SDS011;24531;45.502;12.238;2024-03-02T09:26:29;9.45;;;3.80;;
38783;SDS011;24531;45.502;12.238;2024-03-02T09:28:54;5.15;;;3.58;;
38783;SDS011;24531;45.502;12.238;2024-03-02T09:31:20;8.25;;;3.55;;
38783;SDS011;24531;45.502;12.238;2024-03-02T09:33:46;8.20;;;3.63;;
38783;SDS011;24531;45.502;12.238;2024-03-02T09:36:18;6.28;;;3.70;;
38783;SDS011;24531;45.502;12.238;2024-03-02T09:38:45;10.52;;;3.70;;
38783;SDS011;24531;45.502;12.238;2024-03-02T09:41:11;4.95;;;3.08;;
38783;SDS011;24531;45.502;12.238;2024-03-02T09:43:38;5.28;;;3.47;;
38783;SDS011;24531;45.502;12.238;2024-03-02T09:46:04;5.55;;;3.03;;
38783;SDS011;24531;45.502;12.238;2024-03-02T09:48:31;5.68;;;2.95;;
38783;SDS011;24531;45.502;12.238;2024-03-02T09:50:56;4.75;;;2.83;;
38783;SDS011;24531;45.502;12.238;2024-03-02T09:53:23;4.95;;;2.70;;
38783;SDS011;24531;45.502;12.238;2024-03-02T09:55:50;5.05;;;2.80;;
38783;SDS011;24531;45.502;12.238;2024-03-02T09:58:16;8.80;;;2.72;;
38783;SDS011;24531;45.502;12.238;2024-03-02T10:00:41;3.92;;;2.60;;
38783;SDS011;24531;45.502;12.238;2024-03-02T10:03:11;6.63;;;3.17;;
38783;SDS011;24531;45.502;12.238;2024-03-02T10:05:41;8.45;;;3.00;;
38783;SDS011;24531;45.502;12.238;2024-03-02T10:08:07;5.88;;;4.03;;
38783;SDS011;24531;45.502;12.238;2024-03-02T10:10:40;9.10;;;4.35;;
38783;SDS011;24531;45.502;12.238;2024-03-02T10:13:08;4.45;;;3.47;;
38783;SDS011;24531;45.502;12.238;2024-03-02T10:15:35;5.32;;;3.30;;
38783;SDS011;24531;45.502;12.238;2024-03-02T10:18:14;5.10;;;2.92;;
38783;SDS011;24531;45.502;12.238;2024-03-02T10:20:52;5.90;;;3.47;;
38783;SDS011;24531;45.502;12.238;2024-03-02T10:23:23;5.20;;;3.83;;
38783;SDS011;24531;45.502;12.238;2024-03-02T10:25:50;4.85;;;2.92;;
38783;SDS011;24531;45.502;12.238;2024-03-02T10:28:15;5.95;;;3.35;;
38783;SDS011;24531;45.502;12.238;2024-03-02T10:30:41;4.85;;;3.50;;
38783;SDS011;24531;45.502;12.238;2024-03-02T10:33:07;12.68;;;5.18;;
38783;SDS011;24531;45.502;12.238;2024-03-02T10:35:32;7.88;;;4.70;;
38783;SDS011;24531;45.502;12.238;2024-03-02T10:38:05;5.88;;;3.60;;
38783;SDS011;24531;45.502;12.238;2024-03-02T10:40:31;7.68;;;3.47;;
38783;SDS011;24531;45.502;12.238;2024-03-02T10:42:57;7.32;;;3.35;;
38783;SDS011;24531;45.502;12.238;2024-03-02T10:45:24;4.80;;;3.25;;
38783;SDS011;24531;45.502;12.238;2024-03-02T10:47:50;4.53;;;3.30;;
38783;SDS011;24531;45.502;12.238;2024-03-02T10:50:17;7.93;;;3.75;;
38783;SDS011;24531;45.502;12.238;2024-03-02T10:52:45;5.57;;;3.28;;
38783;SDS011;24531;45.502;12.238;2024-03-02T10:55:10;5.47;;;4.22;;
38783;SDS011;24531;45.502;12.238;2024-03-02T11:00:15;20.98;;;9.82;;
38783;SDS011;24531;45.502;12.238;2024-03-02T11:02:51;10.18;;;5.72;;
38783;SDS011;24531;45.502;12.238;2024-03-02T11:05:34;8.93;;;4.03;;
38783;SDS011;24531;45.502;12.238;2024-03-02T11:08:07;7.97;;;4.25;;
38783;SDS011;24531;45.502;12.238;2024-03-02T11:10:37;4.65;;;3.67;;
38783;SDS011;24531;45.502;12.238;2024-03-02T11:13:09;7.35;;;3.55;;
38783;SDS011;24531;45.502;12.238;2024-03-02T11:15:36;6.45;;;3.75;;
38783;SDS011;24531;45.502;12.238;2024-03-02T11:18:03;7.55;;;3.78;;
38783;SDS011;24531;45.502;12.238;2024-03-02T11:20:33;5.68;;;3.35;;
38783;SDS011;24531;45.502;12.238;2024-03-02T11:23:05;6.35;;;4.00;;
38783;SDS011;24531;45.502;12.238;2024-03-02T11:25:32;5.68;;;2.75;;
38783;SDS011;24531;45.502;12.238;2024-03-02T11:27:59;5.78;;;2.80;;
38783;SDS011;24531;45.502;12.238;2024-03-02T11:32:58;4.40;;;2.33;;
38783;SDS011;24531;45.502;12.238;2024-03-02T11:35:35;4.65;;;3.03;;
38783;SDS011;24531;45.502;12.238;2024-03-02T11:38:05;3.10;;;2.55;;
38783;SDS011;24531;45.502;12.238;2024-03-02T11:40:32;4.80;;;2.95;;
38783;SDS011;24531;45.502;12.238;2024-03-02T11:42:59;4.72;;;3.08;;
38783;SDS011;24531;45.502;12.238;2024-03-02T11:45:25;6.13;;;3.50;;
38783;SDS011;24531;45.502;12.238;2024-03-02T11:47:53;5.40;;;3.47;;
38783;SDS011;24531;45.502;12.238;2024-03-02T11:53:02;4.18;;;3.35;;
38783;SDS011;24531;45.502;12.238;2024-03-02T11:55:36;4.25;;;2.97;;
38783;SDS011;24531;45.502;12.238;2024-03-02T11:58:12;5.97;;;3.63;;
38783;SDS011;24531;45.502;12.238;2024-03-02T12:00:53;8.73;;;4.70;;
38783;SDS011;24531;45.502;12.238;2024-03-02T12:03:20;4.80;;;3.33;;
38783;SDS011;24531;45.502;12.238;2024-03-02T12:05:50;5.50;;;3.40;;
38783;SDS011;24531;45.502;12.238;2024-03-02T12:08:58;5.15;;;3.00;;
38783;SDS011;24531;45.502;12.238;2024-03-02T12:11:29;6.38;;;3.17;;
38783;SDS011;24531;45.502;12.238;2024-03-02T12:13:58;4.40;;;2.92;;
38783;SDS011;24531;45.502;12.238;2024-03-02T12:16:24;3.83;;;2.92;;
38783;SDS011;24531;45.502;12.238;2024-03-02T12:18:56;4.72;;;3.30;;
38783;SDS011;24531;45.502;12.238;2024-03-02T12:21:22;5.63;;;2.90;;
38783;SDS011;24531;45.502;12.238;2024-03-02T12:23:48;3.88;;;3.17;;
38783;SDS011;24531;45.502;12.238;2024-03-02T12:26:22;5.90;;;3.08;;
38783;SDS011;24531;45.502;12.238;2024-03-02T12:28:48;3.55;;;2.85;;
38783;SDS011;24531;45.502;12.238;2024-03-02T12:31:14;4.25;;;3.00;;
38783;SDS011;24531;45.502;12.238;2024-03-02T12:33:46;5.07;;;3.28;;
38783;SDS011;24531;45.502;12.238;2024-03-02T12:36:13;5.15;;;3.38;;
38783;SDS011;24531;45.502;12.238;2024-03-02T12:38:44;6.40;;;3.20;;
38783;SDS011;24531;45.502;12.238;2024-03-02T12:41:17;4.10;;;2.95;;
38783;SDS011;24531;45.502;12.238;2024-03-02T12:43:42;3.55;;;3.00;;
38783;SDS011;24531;45.502;12.238;2024-03-02T12:46:08;5.80;;;2.97;;
38783;SDS011;24531;45.502;12.238;2024-03-02T12:48:34;4.10;;;3.05;;
38783;SDS011;24531;45.502;12.238;2024-03-02T12:51:01;5.00;;;2.85;;
38783;SDS011;24531;45.502;12.238;2024-03-02T12:53:27;4.95;;;2.90;;
38783;SDS011;24531;45.502;12.238;2024-03-02T12:56:05;3.95;;;2.60;;
38783;SDS011;24531;45.502;12.238;2024-03-02T12:58:38;4.25;;;2.60;;
38783;SDS011;24531;45.502;12.238;2024-03-02T13:01:07;6.95;;;2.60;;
38783;SDS011;24531;45.502;12.238;2024-03-02T13:03:37;3.63;;;2.65;;
38783;SDS011;24531;45.502;12.238;2024-03-02T13:06:06;3.78;;;2.38;;
38783;SDS011;24531;45.502;12.238;2024-03-02T13:08:33;3.13;;;2.53;;
38783;SDS011;24531;45.502;12.238;2024-03-02T13:10:58;4.38;;;2.20;;
38783;SDS011;24531;45.502;12.238;2024-03-02T13:13:30;4.85;;;2.10;;
38783;SDS011;24531;45.502;12.238;2024-03-02T13:15:56;4.13;;;3.20;;
38783;SDS011;24531;45.502;12.238;2024-03-02T13:18:25;4.60;;;2.28;;
38783;SDS011;24531;45.502;12.238;2024-03-02T13:20:51;3.72;;;1.98;;
38783;SDS011;24531;45.502;12.238;2024-03-02T13:23:17;3.35;;;1.98;;
38783;SDS011;24531;45.502;12.238;2024-03-02T13:25:42;3.95;;;2.58;;
38783;SDS011;24531;45.502;12.238;2024-03-02T13:28:08;2.58;;;2.13;;
38783;SDS011;24531;45.502;12.238;2024-03-02T13:30:34;3.47;;;2.38;;
38783;SDS011;24531;45.502;12.238;2024-03-02T13:32:59;4.45;;;2.40;;
38783;SDS011;24531;45.502;12.238;2024-03-02T13:35:31;4.18;;;2.00;;
38783;SDS011;24531;45.502;12.238;2024-03-02T13:37:57;3.78;;;2.22;;
38783;SDS011;24531;45.502;12.238;2024-03-02T13:40:23;2.92;;;2.05;;
38783;SDS011;24531;45.502;12.238;2024-03-02T13:42:48;2.13;;;1.85;;
38783;SDS011;24531;45.502;12.238;2024-03-02T13:45:16;6.00;;;3.00;;
38783;SDS011;24531;45.502;12.238;2024-03-02T13:47:43;3.60;;;1.90;;
38783;SDS011;24531;45.502;12.238;2024-03-02T13:50:09;3.72;;;2.15;;
38783;SDS011;24531;45.502;12.238;2024-03-02T13:52:34;4.07;;;2.45;;
38783;SDS011;24531;45.502;12.238;2024-03-02T13:55:00;5.32;;;2.22;;
38783;SDS011;24531;45.502;12.238;2024-03-02T13:57:26;4.18;;;2.58;;
38783;SDS011;24531;45.502;12.238;2024-03-02T13:59:52;3.65;;;1.92;;
38783;SDS011;24531;45.502;12.238;2024-03-02T14:02:18;2.92;;;2.05;;
38783;SDS011;24531;45.502;12.238;2024-03-02T14:04:43;3.75;;;1.70;;
38783;SDS011;24531;45.502;12.238;2024-03-02T14:07:09;5.63;;;1.50;;
38783;SDS011;24531;45.502;12.238;2024-03-02T14:09:38;2.40;;;1.42;;
38783;SDS011;24531;45.502;12.238;2024-03-02T14:12:04;4.22;;;1.20;;
38783;SDS011;24531;45.502;12.238;2024-03-02T14:14:30;6.15;;;1.50;;
38783;SDS011;24531;45.502;12.238;2024-03-02T14:16:56;4.68;;;1.90;;
38783;SDS011;24531;45.502;12.238;2024-03-02T14:19:25;3.65;;;1.25;;
38783;SDS011;24531;45.502;12.238;2024-03-02T14:21:51;5.00;;;1.60;;
38783;SDS011;24531;45.502;12.238;2024-03-02T14:24:17;4.47;;;2.35;;
38783;SDS011;24531;45.502;12.238;2024-03-02T14:26:42;4.53;;;2.10;;
38783;SDS011;24531;45.502;12.238;2024-03-02T14:29:08;3.80;;;1.80;;
38783;SDS011;24531;45.502;12.238;2024-03-02T14:31:34;2.53;;;1.42;;
38783;SDS011;24531;45.502;12.238;2024-03-02T14:33:59;2.85;;;1.65;;
38783;SDS011;24531;45.502;12.238;2024-03-02T14:36:25;1.98;;;1.33;;
38783;SDS011;24531;45.502;12.238;2024-03-02T14:38:54;5.03;;;1.38;;